X  CloseMetar Aviation Weather Data     EBBR Brussels

Temperature

6°C Temperature

4°C Dewpoint

87% Humidity



Wind

16 KM/H

10 MPH

 4 M/S

 9 KTS



170°
Due South
Current Conditions

Mostly Scattered Clouds Mostly Scattered Clouds
Pressure 998.92 (hPa) - 29.5 (in)
Visibility 6.2 (mi) - 10 (km)
Airport
Airport-code EBBR

Location Brussels 14 (km)

Metar:
EBBR 132020Z 17009KT 9999 SCT042 06/04 Q0999 NOSIG

Time: 13-11-2019 21:20